Time;durP1;ratioP1;P1;durP2;ratioP2;P2;SDS_P1;SDS_P2;PMS_P1;PMS_P2;Temp;Humidity;BMP_temperature;BMP_pressure;BME280_temperature;BME280_humidity;BME280_pressure;Samples;Min_cycle;Max_cycle;Signal;HPM_P1;HPM_P2
2021/04/27 00:02:23;;;;;;;2.60;0.90;;;7.40;51.90;;;;;;5035988;28;20207;-66
2021/04/27 00:04:48;;;;;;;2.40;0.60;;;7.30;52.20;;;;;;5035981;28;20253;-66
2021/04/27 00:07:14;;;;;;;2.40;0.63;;;7.30;52.50;;;;;;5023990;28;20178;-66
2021/04/27 00:09:41;;;;;;;3.10;1.00;;;7.30;52.60;;;;;;5015736;28;20198;-66
2021/04/27 00:12:07;;;;;;;2.65;0.93;;;7.30;52.60;;;;;;5016001;28;20251;-68
2021/04/27 00:14:33;;;;;;;2.30;0.60;;;7.20;52.70;;;;;;5016022;28;20167;-67
2021/04/27 00:16:59;;;;;;;2.72;0.90;;;7.20;53.20;;;;;;5015605;28;20167;-67
2021/04/27 00:19:25;;;;;;;2.40;0.60;;;7.10;52.80;;;;;;5015703;28;20191;-67
2021/04/27 00:21:51;;;;;;;2.50;0.80;;;7.00;52.80;;;;;;5015879;28;20439;-65
2021/04/27 00:24:16;;;;;;;3.43;1.20;;;7.00;53.00;;;;;;5015861;28;20178;-69
2021/04/27 00:26:42;;;;;;;2.60;0.80;;;7.00;53.00;;;;;;5015273;28;20645;-69
2021/04/27 00:29:08;;;;;;;2.97;0.87;;;6.90;53.00;;;;;;5030886;28;20281;-68
2021/04/27 00:31:34;;;;;;;3.30;1.47;;;6.80;53.30;;;;;;5035501;28;20273;-69
2021/04/27 00:34:00;;;;;;;2.45;0.73;;;6.80;53.70;;;;;;5035441;28;20166;-70
2021/04/27 00:36:26;;;;;;;6.10;0.95;;;6.70;53.90;;;;;;5033853;28;20233;-66
2021/04/27 00:38:52;;;;;;;2.92;0.95;;;6.80;53.90;;;;;;5035238;28;20304;-66
2021/04/27 00:41:18;;;;;;;2.70;0.90;;;6.70;54.00;;;;;;5035371;28;20186;-66
2021/04/27 00:43:44;;;;;;;2.80;1.00;;;6.60;54.00;;;;;;5035349;28;20393;-67
2021/04/27 00:46:09;;;;;;;2.30;0.50;;;6.60;54.10;;;;;;5050105;28;20691;-66
2021/04/27 00:48:35;;;;;;;2.30;0.50;;;6.50;54.10;;;;;;5034966;28;20192;-66
2021/04/27 00:51:01;;;;;;;2.67;0.73;;;6.50;54.30;;;;;;5034334;28;20185;-67
2021/04/27 00:53:28;;;;;;;2.50;0.80;;;6.50;54.60;;;;;;5035043;28;20171;-67
2021/04/27 00:55:54;;;;;;;2.75;1.23;;;6.50;54.80;;;;;;5049729;28;20479;-65
2021/04/27 00:58:21;;;;;;;2.70;0.93;;;6.40;54.80;;;;;;5033404;28;20190;-66
2021/04/27 01:00:48;;;;;;;4.15;1.48;;;6.40;55.00;;;;;;5049917;28;20178;-65
2021/04/27 01:03:14;;;;;;;2.85;1.20;;;6.40;55.20;;;;;;5034832;28;20617;-65
2021/04/27 01:05:40;;;;;;;2.50;0.80;;;6.30;55.10;;;;;;5034606;28;20303;-68
2021/04/27 01:08:13;;;;;;;3.92;1.58;;;6.40;55.40;;;;;;5034514;28;20452;-68
2021/04/27 01:10:54;;;;;;;3.30;0.90;;;6.30;55.40;;;;;;5034634;28;20177;-68
2021/04/27 01:13:36;;;;;;;3.63;1.02;;;6.20;55.40;;;;;;5034738;28;20168;-68
2021/04/27 01:16:04;;;;;;;4.65;0.93;;;6.20;55.60;;;;;;5019304;28;20189;-67
2021/04/27 01:18:32;;;;;;;2.60;0.98;;;6.20;55.70;;;;;;5033964;28;20200;-68
2021/04/27 01:20:58;;;;;;;2.33;0.52;;;6.10;55.80;;;;;;5034717;28;20585;-68
2021/04/27 01:23:28;;;;;;;2.78;1.02;;;6.20;55.90;;;;;;5049760;28;20177;-68
2021/04/27 01:26:05;;;;;;;2.80;1.23;;;6.10;56.00;;;;;;5034151;28;20166;-68
2021/04/27 01:28:32;;;;;;;3.00;0.73;;;6.10;56.20;;;;;;5031997;28;20247;-66
2021/04/27 01:30:59;;;;;;;2.40;0.60;;;6.00;56.50;;;;;;5019703;28;20232;-66
2021/04/27 01:33:28;;;;;;;2.85;0.80;;;6.00;56.60;;;;;;5033953;28;20206;-68
2021/04/27 01:36:00;;;;;;;5.32;0.63;;;6.00;56.80;;;;;;5033719;28;20248;-68
2021/04/27 01:38:26;;;;;;;2.40;0.75;;;5.90;56.90;;;;;;5034100;28;20186;-68
2021/04/27 01:40:54;;;;;;;3.45;0.82;;;5.90;57.10;;;;;;5032454;28;20170;-69
2021/04/27 01:43:21;;;;;;;2.30;0.55;;;5.90;57.20;;;;;;5033988;28;20193;-69
2021/04/27 01:46:17;;;;;;;2.63;0.80;;;5.90;57.60;;;;;;5033769;28;20167;-68
2021/04/27 01:48:43;;;;;;;2.60;0.70;;;5.80;57.40;;;;;;5033186;28;20218;-68
2021/04/27 01:51:11;;;;;;;3.85;1.45;;;5.80;57.40;;;;;;5033720;28;20185;-68
2021/04/27 01:53:44;;;;;;;2.40;0.63;;;5.70;57.40;;;;;;5033996;28;20240;-69
2021/04/27 01:56:10;;;;;;;2.50;0.90;;;5.80;57.50;;;;;;5033486;28;20275;-69
2021/04/27 01:58:35;;;;;;;3.23;0.93;;;5.70;57.50;;;;;;5033906;28;20190;-68
2021/04/27 02:01:02;;;;;;;2.40;0.70;;;5.60;57.70;;;;;;5034213;28;20200;-68
2021/04/27 02:03:29;;;;;;;2.40;0.70;;;5.50;57.80;;;;;;5033421;28;20249;-66
2021/04/27 02:05:55;;;;;;;3.13;0.82;;;5.50;58.20;;;;;;5012699;28;20182;-67
2021/04/27 02:08:21;;;;;;;2.50;0.80;;;5.50;58.40;;;;;;5014140;28;20197;-66
2021/04/27 02:10:47;;;;;;;4.30;0.60;;;5.40;58.80;;;;;;5014438;28;20175;-66
2021/04/27 02:13:18;;;;;;;3.80;1.70;;;5.40;59.00;;;;;;5013703;28;20486;-66
2021/04/27 02:15:45;;;;;;;6.00;2.25;;;5.30;59.40;;;;;;5013693;28;20243;-67
2021/04/27 02:18:17;;;;;;;2.80;0.80;;;5.30;59.70;;;;;;5013754;28;20189;-68
2021/04/27 02:20:44;;;;;;;2.40;0.50;;;5.30;59.70;;;;;;5013911;28;20574;-66
2021/04/27 02:23:11;;;;;;;2.40;0.60;;;5.20;59.70;;;;;;5013711;28;20225;-67
2021/04/27 02:25:37;;;;;;;4.05;1.50;;;5.20;59.80;;;;;;5013829;28;20178;-66
2021/04/27 02:28:04;;;;;;;2.28;0.30;;;5.20;60.00;;;;;;5013535;28;20194;-67
2021/04/27 02:30:30;;;;;;;2.40;0.75;;;5.10;60.20;;;;;;5013786;28;20221;-67
2021/04/27 02:32:55;;;;;;;2.40;0.63;;;5.10;60.10;;;;;;5013668;28;20265;-67
2021/04/27 02:35:22;;;;;;;2.40;0.70;;;5.10;60.10;;;;;;5032188;28;20276;-67
2021/04/27 02:37:49;;;;;;;3.00;0.77;;;5.20;60.00;;;;;;5033061;28;20167;-66
2021/04/27 02:40:22;;;;;;;2.60;0.60;;;5.20;60.10;;;;;;5013588;28;20191;-67
2021/04/27 02:42:50;;;;;;;3.63;1.02;;;5.30;60.00;;;;;;5013636;28;20254;-66
2021/04/27 02:45:16;;;;;;;2.30;0.50;;;5.20;60.00;;;;;;5013611;28;20521;-67
2021/04/27 02:47:42;;;;;;;4.50;1.33;;;5.30;60.00;;;;;;5017396;28;20178;-67
2021/04/27 02:50:08;;;;;;;2.50;0.90;;;5.40;60.00;;;;;;5033162;28;20827;-68
2021/04/27 02:52:34;;;;;;;2.30;0.43;;;5.30;59.90;;;;;;5033142;28;20519;-66
2021/04/27 02:55:00;;;;;;;2.80;1.27;;;5.40;59.80;;;;;;5033230;28;20637;-67
2021/04/27 02:57:26;;;;;;;3.17;1.58;;;5.40;59.80;;;;;;5045106;28;20197;-67
2021/04/27 02:59:52;;;;;;;13.30;1.40;;;5.40;59.90;;;;;;5016179;28;20212;-66
2021/04/27 03:02:17;;;;;;;3.60;1.00;;;5.50;59.80;;;;;;5017250;28;20183;-67
2021/04/27 03:04:43;;;;;;;2.40;0.50;;;5.50;59.80;;;;;;5017359;28;20541;-66
2021/04/27 03:07:09;;;;;;;2.60;0.60;;;5.40;60.80;;;;;;5016707;28;20181;-68
2021/04/27 03:09:35;;;;;;;2.67;1.23;;;5.40;60.00;;;;;;5017038;28;20197;-66
2021/04/27 03:12:00;;;;;;;2.30;0.60;;;5.40;60.20;;;;;;5017151;28;20476;-66
2021/04/27 03:14:26;;;;;;;2.30;0.60;;;5.40;60.10;;;;;;5017018;28;20177;-66
2021/04/27 03:16:52;;;;;;;2.60;0.80;;;5.40;60.30;;;;;;5016669;28;20863;-66
2021/04/27 03:19:17;;;;;;;4.70;1.60;;;5.50;60.50;;;;;;5016958;28;20306;-66
2021/04/27 03:21:43;;;;;;;2.27;0.43;;;5.40;60.40;;;;;;5017470;28;20444;-67
2021/04/27 03:24:09;;;;;;;2.40;0.57;;;5.40;60.50;;;;;;5017061;28;20577;-66
2021/04/27 03:26:35;;;;;;;2.50;0.97;;;5.40;60.90;;;;;;5016571;28;20174;-66
2021/04/27 03:29:00;;;;;;;2.50;0.67;;;5.30;61.20;;;;;;5035931;28;20440;-66
2021/04/27 03:31:26;;;;;;;2.50;0.63;;;5.30;61.20;;;;;;5036617;28;20179;-65
2021/04/27 03:33:52;;;;;;;2.30;0.50;;;5.40;61.30;;;;;;5036401;28;20199;-66
2021/04/27 03:36:18;;;;;;;2.50;0.90;;;5.40;61.50;;;;;;5025362;28;20198;-67
2021/04/27 03:38:43;;;;;;;3.40;1.83;;;5.40;61.60;;;;;;5016444;28;20198;-66
2021/04/27 03:41:09;;;;;;;2.60;0.80;;;5.40;61.50;;;;;;5016630;28;20170;-69
2021/04/27 03:43:35;;;;;;;3.20;0.90;;;5.40;61.70;;;;;;5016518;28;20167;-66
2021/04/27 03:46:00;;;;;;;2.30;0.50;;;5.40;61.70;;;;;;5016228;28;20179;-66
2021/04/27 03:48:26;;;;;;;2.60;1.17;;;5.40;61.70;;;;;;5021780;28;20210;-67
2021/04/27 03:50:52;;;;;;;3.43;1.00;;;5.40;62.00;;;;;;5016446;28;20198;-66
2021/04/27 03:53:18;;;;;;;3.13;1.13;;;5.40;62.40;;;;;;5016207;28;20175;-67
2021/04/27 03:55:44;;;;;;;2.30;0.50;;;5.30;63.10;;;;;;5015928;28;20456;-67
2021/04/27 03:58:10;;;;;;;2.40;0.53;;;5.20;63.10;;;;;;5015977;28;20421;-67
2021/04/27 04:00:36;;;;;;;2.80;0.65;;;5.20;64.00;;;;;;5016321;28;20404;-67
2021/04/27 04:03:01;;;;;;;2.80;1.02;;;5.20;64.90;;;;;;5016041;28;20182;-67
2021/04/27 04:05:27;;;;;;;3.33;0.87;;;5.10;65.50;;;;;;5016146;28;20229;-67
2021/04/27 04:07:53;;;;;;;3.27;1.07;;;5.10;65.40;;;;;;5015610;28;20475;-68
2021/04/27 04:10:19;;;;;;;2.50;0.53;;;5.10;65.00;;;;;;5013864;28;20421;-66
2021/04/27 04:12:45;;;;;;;2.77;0.67;;;5.00;65.40;;;;;;5015703;28;20171;-67
2021/04/27 04:15:16;;;;;;;2.58;0.85;;;5.10;65.60;;;;;;5015722;28;20187;-67
2021/04/27 04:17:43;;;;;;;2.30;0.40;;;5.00;66.10;;;;;;5030208;28;20193;-67
2021/04/27 04:20:11;;;;;;;2.50;0.70;;;5.00;66.80;;;;;;5035386;28;20167;-66
2021/04/27 04:22:38;;;;;;;3.15;1.00;;;5.00;66.70;;;;;;5035733;28;20166;-66
2021/04/27 04:25:06;;;;;;;2.50;0.60;;;5.00;66.70;;;;;;5035254;28;20174;-68
2021/04/27 04:27:32;;;;;;;3.30;1.38;;;5.00;66.70;;;;;;5034926;28;20177;-68
2021/04/27 04:29:57;;;;;;;3.00;1.00;;;4.90;67.40;;;;;;5035315;28;20177;-67
2021/04/27 04:32:23;;;;;;;2.60;0.73;;;4.90;67.40;;;;;;5035261;28;20413;-67
2021/04/27 04:34:49;;;;;;;4.87;1.17;;;4.90;67.50;;;;;;5035170;28;20682;-67
2021/04/27 04:37:14;;;;;;;3.43;1.63;;;4.90;67.50;;;;;;5034778;28;20517;-65
2021/04/27 04:39:40;;;;;;;2.93;1.30;;;4.90;67.20;;;;;;5029765;28;20203;-67
2021/04/27 04:42:06;;;;;;;3.70;0.90;;;5.00;67.50;;;;;;5015535;28;20182;-67
2021/04/27 04:44:32;;;;;;;2.90;0.73;;;5.00;67.50;;;;;;5015530;28;20175;-66
2021/04/27 04:46:57;;;;;;;2.30;0.40;;;5.10;66.90;;;;;;5013545;28;20179;-67
2021/04/27 04:49:24;;;;;;;2.50;0.87;;;5.20;66.60;;;;;;5015022;28;20202;-67
2021/04/27 04:51:51;;;;;;;4.50;1.15;;;5.30;66.20;;;;;;5015260;28;20463;-67
2021/04/27 04:54:18;;;;;;;2.65;0.82;;;5.40;67.30;;;;;;5015325;28;20171;-67
2021/04/27 04:56:44;;;;;;;9.20;0.80;;;5.40;67.90;;;;;;5014603;28;20191;-67
2021/04/27 04:59:09;;;;;;;4.40;0.73;;;5.60;67.90;;;;;;5014911;28;20187;-68
2021/04/27 05:01:35;;;;;;;2.97;1.17;;;5.70;67.60;;;;;;5015221;28;20171;-67
2021/04/27 05:04:00;;;;;;;2.77;0.80;;;5.90;68.30;;;;;;5029751;28;20186;-68
2021/04/27 05:06:27;;;;;;;2.83;1.13;;;6.00;67.70;;;;;;5034120;28;20537;-67
2021/04/27 05:08:54;;;;;;;3.80;1.25;;;6.10;66.60;;;;;;5034749;28;20201;-67
2021/04/27 05:11:20;;;;;;;2.85;0.82;;;6.10;66.60;;;;;;5035239;28;20174;-68
2021/04/27 05:13:46;;;;;;;4.20;0.73;;;6.30;67.10;;;;;;5034763;28;20170;-67
2021/04/27 05:16:12;;;;;;;2.80;1.10;;;6.30;67.20;;;;;;5034074;28;20545;-67
2021/04/27 05:18:39;;;;;;;5.32;2.50;;;6.40;66.90;;;;;;5020221;28;20205;-67
2021/04/27 05:21:06;;;;;;;2.70;1.00;;;6.50;66.90;;;;;;5014500;28;20250;-65
2021/04/27 05:23:31;;;;;;;4.88;1.50;;;6.50;64.70;;;;;;5014697;28;20170;-67
2021/04/27 05:25:57;;;;;;;3.47;1.17;;;6.50;64.20;;;;;;5014462;28;20167;-66
2021/04/27 05:28:23;;;;;;;2.47;0.60;;;6.60;64.40;;;;;;5014920;28;20429;-66
2021/04/27 05:30:49;;;;;;;3.30;1.00;;;6.70;64.20;;;;;;5014688;28;20432;-66
2021/04/27 05:33:15;;;;;;;2.90;1.00;;;6.70;63.90;;;;;;5026983;28;20182;-68
2021/04/27 05:35:41;;;;;;;5.67;1.83;;;6.80;63.50;;;;;;5033955;28;20194;-67
2021/04/27 05:38:08;;;;;;;3.58;1.20;;;7.00;62.90;;;;;;5034054;28;20190;-67
2021/04/27 05:40:35;;;;;;;2.80;1.10;;;7.20;62.80;;;;;;5049335;28;20178;-67
2021/04/27 05:43:02;;;;;;;3.92;1.67;;;7.40;63.10;;;;;;5034021;28;20183;-68
2021/04/27 05:45:27;;;;;;;3.00;1.15;;;7.70;61.30;;;;;;5049369;28;20669;-67
2021/04/27 05:47:53;;;;;;;6.10;2.33;;;8.00;60.00;;;;;;5033617;28;20297;-66
2021/04/27 05:50:19;;;;;;;3.30;1.10;;;8.40;59.70;;;;;;5033950;28;20240;-66
2021/04/27 05:52:44;;;;;;;3.00;1.50;;;8.90;58.90;;;;;;5034099;28;20184;-66
2021/04/27 05:55:10;;;;;;;8.70;3.07;;;9.30;57.90;;;;;;5046192;28;20210;-67
2021/04/27 05:57:36;;;;;;;4.47;2.33;;;9.50;57.50;;;;;;5013741;28;20660;-67
2021/04/27 06:00:04;;;;;;;3.80;1.90;;;9.80;57.40;;;;;;5025108;28;20786;-66
2021/04/27 06:02:29;;;;;;;3.15;1.35;;;10.20;56.10;;;;;;5052111;28;20276;-68
2021/04/27 06:04:55;;;;;;;4.30;1.83;;;10.60;55.30;;;;;;5033074;28;20213;-66
2021/04/27 06:07:21;;;;;;;6.77;1.90;;;10.70;55.50;;;;;;5046833;28;20711;-65
2021/04/27 06:09:46;;;;;;;4.07;2.00;;;10.70;55.30;;;;;;5031452;28;20208;-69
2021/04/27 06:12:12;;;;;;;5.10;1.40;;;10.80;54.30;;;;;;5044237;28;20182;-67
2021/04/27 06:14:38;;;;;;;4.80;2.30;;;10.80;54.10;;;;;;5037240;28;20543;-67
2021/04/27 06:17:03;;;;;;;4.50;1.90;;;10.70;53.90;;;;;;5033035;28;20227;-67
2021/04/27 06:19:29;;;;;;;3.67;1.43;;;10.80;53.70;;;;;;5028331;28;20948;-67
2021/04/27 06:21:55;;;;;;;5.47;2.10;;;10.80;53.80;;;;;;5025275;28;20262;-67
2021/04/27 06:24:20;;;;;;;3.50;1.40;;;10.90;54.80;;;;;;5019370;28;20918;-66
2021/04/27 06:26:46;;;;;;;5.77;2.37;;;11.20;53.90;;;;;;5032932;28;20166;-67
2021/04/27 06:29:12;;;;;;;4.37;1.60;;;11.50;53.60;;;;;;5021915;28;20213;-67
2021/04/27 06:31:37;;;;;;;3.67;1.83;;;11.60;53.20;;;;;;5029926;28;21599;-65
2021/04/27 06:34:06;;;;;;;4.70;2.00;;;11.60;52.70;;;;;;5021308;28;20546;-66
2021/04/27 06:36:33;;;;;;;5.10;2.20;;;11.50;52.70;;;;;;5013018;28;20203;-67
2021/04/27 06:38:59;;;;;;;3.65;1.55;;;11.50;52.50;;;;;;5030437;28;20744;-66
2021/04/27 06:41:25;;;;;;;4.10;1.95;;;11.40;52.60;;;;;;5015772;28;20210;-66
2021/04/27 06:43:51;;;;;;;4.40;1.80;;;11.40;52.80;;;;;;5032252;28;20214;-66
2021/04/27 06:46:17;;;;;;;3.50;1.70;;;11.30;52.50;;;;;;5032815;28;20197;-67
2021/04/27 06:48:43;;;;;;;3.87;1.30;;;11.20;53.00;;;;;;5032700;28;20197;-66
2021/04/27 06:51:09;;;;;;;3.50;1.30;;;11.30;52.90;;;;;;5030346;28;20915;-65
2021/04/27 06:53:35;;;;;;;3.63;1.50;;;11.40;52.70;;;;;;5036188;28;20600;-65
2021/04/27 06:56:02;;;;;;;3.95;1.60;;;11.20;51.70;;;;;;5039386;28;20706;-66
2021/04/27 06:58:28;;;;;;;3.63;1.87;;;11.30;52.30;;;;;;5052605;28;20202;-66
2021/04/27 07:00:54;;;;;;;4.23;2.10;;;11.50;52.50;;;;;;5033910;28;20471;-65
2021/04/27 07:03:19;;;;;;;7.67;1.90;;;11.60;52.90;;;;;;5022749;28;20172;-67
2021/04/27 07:05:45;;;;;;;4.30;1.73;;;11.70;52.60;;;;;;5032605;28;20187;-68
2021/04/27 07:08:12;;;;;;;4.47;1.80;;;11.90;52.40;;;;;;5032971;28;20257;-67
2021/04/27 07:10:37;;;;;;;6.60;3.13;;;12.20;52.30;;;;;;5020002;28;20192;-65
2021/04/27 07:13:03;;;;;;;4.60;1.80;;;12.30;51.50;;;;;;5014146;28;20421;-63
2021/04/27 07:15:29;;;;;;;3.70;1.63;;;12.50;51.20;;;;;;5023181;28;20211;-66
2021/04/27 07:17:55;;;;;;;4.90;2.00;;;12.90;51.60;;;;;;5012614;28;20201;-67
2021/04/27 07:20:21;;;;;;;4.37;2.20;;;13.20;51.20;;;;;;5028679;28;20560;-69
2021/04/27 07:22:47;;;;;;;6.63;2.27;;;13.50;50.30;;;;;;5032665;28;20470;-66
2021/04/27 07:25:14;;;;;;;4.60;2.17;;;13.60;49.90;;;;;;5027166;28;20918;-64
2021/04/27 07:27:40;;;;;;;5.33;1.60;;;14.10;50.50;;;;;;5016108;28;20184;-64
2021/04/27 07:30:07;;;;;;;4.20;2.10;;;14.80;48.90;;;;;;5018779;28;20512;-66
2021/04/27 07:32:33;;;;;;;4.27;2.40;;;15.60;48.30;;;;;;5032324;28;20183;-63
2021/04/27 07:34:59;;;;;;;3.70;1.80;;;16.50;46.90;;;;;;5030126;28;20461;-67
2021/04/27 07:37:24;;;;;;;4.27;1.90;;;17.20;46.00;;;;;;5047039;28;20209;-64
2021/04/27 07:39:50;;;;;;;5.83;2.77;;;18.20;45.00;;;;;;5038069;28;20212;-66
2021/04/27 07:42:16;;;;;;;5.67;3.00;;;18.90;43.90;;;;;;5018033;28;20673;-64
2021/04/27 07:44:42;;;;;;;5.40;2.60;;;19.40;43.10;;;;;;5015054;28;20641;-67
2021/04/27 07:47:07;;;;;;;7.70;2.00;;;20.10;42.30;;;;;;5033129;28;20178;-65
2021/04/27 07:49:33;;;;;;;3.67;2.07;;;20.80;42.20;;;;;;5034960;28;20198;-63
2021/04/27 07:51:59;;;;;;;3.50;1.93;;;21.00;41.50;;;;;;5036110;28;20199;-62
2021/04/27 07:54:24;;;;;;;4.83;2.77;;;21.20;41.90;;;;;;5027375;28;20233;-64
2021/04/27 07:56:50;;;;;;;6.70;2.87;;;21.20;41.20;;;;;;5015743;28;20564;-63
2021/04/27 07:59:16;;;;;;;4.87;2.90;;;21.40;40.90;;;;;;5038676;28;20217;-65
2021/04/27 08:01:42;;;;;;;4.07;2.40;;;21.70;40.10;;;;;;5035515;28;20440;-64
2021/04/27 08:04:08;;;;;;;5.37;2.97;;;22.10;40.60;;;;;;5045331;28;20651;-60
2021/04/27 08:06:34;;;;;;;5.30;3.00;;;22.90;39.80;;;;;;5049984;28;20186;-64
2021/04/27 08:09:01;;;;;;;6.33;2.70;;;23.00;38.60;;;;;;5034793;28;20198;-65
2021/04/27 08:11:27;;;;;;;4.50;2.80;;;22.70;38.80;;;;;;5035654;28;20408;-64
2021/04/27 08:13:52;;;;;;;4.60;3.00;;;22.70;38.70;;;;;;5025952;28;20428;-63
2021/04/27 08:16:18;;;;;;;4.80;3.20;;;22.90;38.50;;;;;;5034321;28;20198;-61
2021/04/27 08:18:44;;;;;;;4.63;2.80;;;23.00;38.30;;;;;;5022203;28;20629;-64
2021/04/27 08:21:12;;;;;;;4.90;2.60;;;23.10;38.50;;;;;;5035470;28;20410;-66
2021/04/27 08:23:38;;;;;;;4.70;3.00;;;23.50;38.50;;;;;;5034404;28;20821;-63
2021/04/27 08:26:06;;;;;;;5.33;3.27;;;23.60;37.90;;;;;;5053199;28;20387;-64
2021/04/27 08:28:31;;;;;;;4.10;2.93;;;23.90;37.80;;;;;;5035848;28;20444;-67
2021/04/27 08:30:58;;;;;;;5.40;2.93;;;23.80;37.40;;;;;;5032079;28;20406;-65
2021/04/27 08:33:24;;;;;;;4.70;3.10;;;23.60;38.00;;;;;;5021938;28;20175;-65
2021/04/27 08:35:51;;;;;;;5.00;3.17;;;23.40;38.30;;;;;;5025676;28;20427;-65
2021/04/27 08:38:17;;;;;;;4.80;2.80;;;23.70;38.10;;;;;;5022305;28;20441;-65
2021/04/27 08:40:45;;;;;;;9.93;2.97;;;24.20;39.00;;;;;;5038744;28;20428;-65
2021/04/27 08:43:10;;;;;;;5.87;3.10;;;24.40;38.10;;;;;;5054846;28;20168;-63
2021/04/27 08:45:36;;;;;;;5.53;3.87;;;25.00;38.10;;;;;;5051391;28;20425;-64
2021/04/27 08:48:02;;;;;;;5.30;3.13;;;24.90;37.20;;;;;;5034435;28;20201;-63
2021/04/27 08:50:28;;;;;;;4.70;3.37;;;24.90;37.40;;;;;;5028110;28;20194;-65
2021/04/27 08:52:54;;;;;;;5.30;3.20;;;24.70;36.90;;;;;;5031353;28;20647;-65
2021/04/27 08:55:20;;;;;;;4.60;2.80;;;24.60;37.10;;;;;;5024501;28;20282;-66
2021/04/27 08:57:46;;;;;;;5.10;3.07;;;24.40;37.60;;;;;;5022740;28;20725;-66
2021/04/27 09:00:17;;;;;;;4.73;2.57;;;25.10;36.90;;;;;;5032565;28;20405;-66
2021/04/27 09:02:56;;;;;;;5.97;3.70;;;25.80;36.80;;;;;;5043156;28;20174;-67
2021/04/27 09:05:30;;;;;;;5.40;3.40;;;26.00;35.70;;;;;;5030573;28;20506;-65
2021/04/27 09:07:57;;;;;;;5.60;3.10;;;26.20;35.20;;;;;;5042935;28;20446;-65
2021/04/27 09:10:29;;;;;;;5.23;3.20;;;26.40;35.40;;;;;;5028748;28;20441;-65
2021/04/27 09:13:02;;;;;;;6.10;4.20;;;26.70;35.50;;;;;;5021915;28;20392;-65
2021/04/27 09:15:35;;;;;;;4.70;3.43;;;26.60;34.60;;;;;;5034293;28;20455;-67
2021/04/27 09:18:29;;;;;;;5.13;3.47;;;26.90;34.70;;;;;;5033912;28;20620;-63
2021/04/27 09:21:09;;;;;;;5.70;3.70;;;27.40;34.50;;;;;;5034279;28;20413;-65
2021/04/27 09:23:37;;;;;;;5.80;3.27;;;27.10;34.00;;;;;;5056446;28;20421;-67
2021/04/27 09:26:20;;;;;;;5.80;3.80;;;27.20;35.20;;;;;;5035652;28;20387;-67
2021/04/27 09:28:50;;;;;;;4.40;3.17;;;27.00;33.80;;;;;;5034038;28;20415;-70
2021/04/27 09:31:27;;;;;;;4.67;3.30;;;26.30;34.10;;;;;;5034243;28;20409;-68
2021/04/27 09:34:13;;;;;;;6.17;3.90;;;26.30;34.30;;;;;;5033932;28;20792;-66
2021/04/27 09:36:39;;;;;;;5.50;3.53;;;26.50;34.50;;;;;;5033469;28;20510;-66
2021/04/27 09:39:05;;;;;;;5.03;3.03;;;26.50;35.40;;;;;;5033846;28;20965;-67
2021/04/27 09:41:30;;;;;;;5.03;3.87;;;26.10;35.90;;;;;;5049158;28;20640;-68
2021/04/27 09:43:56;;;;;;;5.70;3.93;;;26.40;36.00;;;;;;5033835;28;20177;-68
2021/04/27 09:46:23;;;;;;;6.03;4.00;;;26.20;35.60;;;;;;5037422;28;20322;-76
2021/04/27 09:48:54;;;;;;;5.60;3.57;;;26.20;35.40;;;;;;5020595;28;20198;-71
2021/04/27 09:51:22;;;;;;;6.00;3.43;;;26.30;34.10;;;;;;5044196;28;20407;-67
2021/04/27 09:53:55;;;;;;;4.90;3.57;;;26.40;34.40;;;;;;5037140;28;20404;-66
2021/04/27 09:56:39;;;;;;;5.90;3.77;;;26.90;33.70;;;;;;5040926;28;20418;-69
2021/04/27 09:59:05;;;;;;;5.47;3.70;;;26.90;33.00;;;;;;5023053;28;20503;-68
2021/04/27 10:01:31;;;;;;;6.47;4.50;;;26.60;34.60;;;;;;5031967;28;20965;-68
2021/04/27 10:03:58;;;;;;;5.47;3.20;;;25.80;34.90;;;;;;5032637;28;20194;-74
2021/04/27 10:06:25;;;;;;;5.47;3.40;;;25.40;36.30;;;;;;5032899;28;20907;-71
2021/04/27 10:08:51;;;;;;;5.73;3.70;;;24.90;36.00;;;;;;5032680;28;20610;-67
2021/04/27 10:11:18;;;;;;;4.93;3.60;;;24.70;35.50;;;;;;5029158;28;20488;-72
2021/04/27 10:13:44;;;;;;;5.20;3.77;;;24.80;36.10;;;;;;5041701;28;20387;-68
2021/04/27 10:16:10;;;;;;;5.57;3.80;;;25.10;35.40;;;;;;5033210;28;21024;-67
2021/04/27 10:18:36;;;;;;;5.23;4.07;;;25.10;35.60;;;;;;5032615;28;20411;-68
2021/04/27 10:21:04;;;;;;;5.87;3.40;;;25.30;35.70;;;;;;5051384;28;20220;-66
2021/04/27 10:23:31;;;;;;;5.00;3.67;;;25.60;35.80;;;;;;5046736;28;20228;-68
2021/04/27 10:25:57;;;;;;;6.23;3.50;;;25.10;36.00;;;;;;5032774;28;20405;-72
2021/04/27 10:28:23;;;;;;;4.83;3.03;;;24.80;34.80;;;;;;5032237;28;21112;-72
2021/04/27 10:30:49;;;;;;;4.70;3.33;;;24.90;34.00;;;;;;5033255;28;20473;-70
2021/04/27 10:33:16;;;;;;;5.80;3.73;;;25.30;33.80;;;;;;5032447;28;20208;-70
2021/04/27 10:36:01;;;;;;;4.83;3.07;;;25.30;32.90;;;;;;5031376;28;20202;-71
2021/04/27 10:38:45;;;;;;;6.17;3.03;;;24.80;32.90;;;;;;5024321;28;20802;-70
2021/04/27 10:41:13;;;;;;;6.80;3.33;;;24.40;32.70;;;;;;5033138;28;20382;-74
2021/04/27 10:43:41;;;;;;;5.43;3.30;;;24.40;32.90;;;;;;5024287;28;20830;-74
2021/04/27 10:46:28;;;;;;;4.67;2.77;;;24.60;32.90;;;;;;5013016;28;20421;-74
2021/04/27 10:49:08;;;;;;;5.30;3.43;;;24.60;32.60;;;;;;5028923;28;20423;-75
2021/04/27 10:51:40;;;;;;;5.47;3.27;;;24.30;33.10;;;;;;5048269;28;20432;-73
2021/04/27 10:54:21;;;;;;;4.87;3.30;;;23.80;34.00;;;;;;5030126;28;20434;-74
2021/04/27 10:57:05;;;;;;;5.07;2.90;;;23.50;34.30;;;;;;5012812;28;20463;-76
2021/04/27 10:59:49;;;;;;;6.13;3.30;;;23.60;34.50;;;;;;5028430;28;20977;-73
2021/04/27 11:02:23;;;;;;;11.67;3.40;;;23.80;35.30;;;;;;5013816;28;20743;-74
2021/04/27 11:04:53;;;;;;;5.33;3.07;;;23.70;35.40;;;;;;5032661;28;20419;-74
2021/04/27 11:07:22;;;;;;;5.70;2.80;;;23.50;34.30;;;;;;5031646;28;20438;-72
2021/04/27 11:10:00;;;;;;;5.30;2.80;;;23.10;33.60;;;;;;5011603;28;20521;-75
2021/04/27 11:12:28;;;;;;;6.03;3.10;;;22.10;35.50;;;;;;5013982;28;20420;-74
2021/04/27 11:15:33;;;;;;;5.80;3.10;;;21.20;36.30;;;;;;5033065;28;20765;-75
2021/04/27 11:18:04;;;;;;;5.33;2.80;;;20.30;36.20;;;;;;5023624;28;20457;-75
2021/04/27 11:20:51;;;;;;;8.10;3.57;;;19.80;37.50;;;;;;5028416;28;20822;-75
2021/04/27 11:24:05;;;;;;;6.83;3.50;;;19.30;38.80;;;;;;5026621;28;20440;-67
2021/04/27 11:26:34;;;;;;;6.07;3.87;;;18.80;39.30;;;;;;5024295;28;20448;-68
2021/04/27 11:29:32;;;;;;;6.90;3.00;;;18.30;39.50;;;;;;5033176;28;20461;-67
2021/04/27 11:32:01;;;;;;;7.23;3.73;;;18.00;41.50;;;;;;5034333;28;20406;-67
2021/04/27 11:34:28;;;;;;;4.30;2.70;;;17.80;40.40;;;;;;5032201;28;20927;-68
2021/04/27 11:36:54;;;;;;;5.47;2.90;;;17.70;41.00;;;;;;5034008;28;20822;-69
2021/04/27 11:39:26;;;;;;;5.97;2.90;;;17.70;40.40;;;;;;5027748;28;20436;-68
2021/04/27 11:41:54;;;;;;;7.00;3.67;;;17.60;40.20;;;;;;5033857;28;20902;-66
2021/04/27 11:44:21;;;;;;;6.20;3.73;;;17.50;40.60;;;;;;5033242;28;20413;-68
2021/04/27 11:47:08;;;;;;;6.13;2.93;;;17.50;41.20;;;;;;5028183;28;20429;-69
2021/04/27 11:50:13;;;;;;;7.10;3.90;;;17.30;42.00;;;;;;5033421;28;20433;-69
2021/04/27 11:52:52;;;;;;;6.93;3.30;;;17.30;41.30;;;;;;4977765;28;20570;-69
2021/04/27 11:55:23;;;;;;;5.70;2.83;;;17.20;43.30;;;;;;5018916;28;20468;-72
2021/04/27 11:58:33;;;;;;;5.50;3.27;;;17.30;40.90;;;;;;5031244;28;20424;-66
2021/04/27 12:01:00;;;;;;;7.83;2.77;;;17.40;40.20;;;;;;5014108;28;20515;-74
2021/04/27 12:03:31;;;;;;;5.20;2.80;;;17.40;39.40;;;;;;5050613;28;20403;-71
2021/04/27 12:06:05;;;;;;;4.00;2.17;;;17.40;40.20;;;;;;5029361;28;20955;-73
2021/04/27 12:08:33;;;;;;;6.73;3.40;;;17.40;40.60;;;;;;5022043;28;20597;-73
2021/04/27 12:11:15;;;;;;;4.27;2.17;;;17.50;41.10;;;;;;5022295;28;20490;-73
2021/04/27 12:13:48;;;;;;;5.13;2.53;;;17.60;41.30;;;;;;5033853;28;20409;-72
2021/04/27 12:16:18;;;;;;;4.97;2.70;;;17.50;41.30;;;;;;5025280;28;20545;-75
2021/04/27 12:18:53;;;;;;;7.50;2.80;;;17.50;41.80;;;;;;5030434;28;20523;-69
2021/04/27 12:21:45;;;;;;;6.53;2.90;;;17.40;41.70;;;;;;5033643;28;20427;-70
2021/04/27 12:24:21;;;;;;;4.87;3.03;;;17.40;42.10;;;;;;5029629;28;20428;-68
2021/04/27 12:26:54;;;;;;;5.90;2.90;;;17.50;42.30;;;;;;5022567;28;20444;-69
2021/04/27 12:29:34;;;;;;;5.77;3.57;;;17.50;42.20;;;;;;5032814;28;20440;-69
2021/04/27 12:32:12;;;;;;;7.13;4.17;;;17.60;41.60;;;;;;5030183;28;20799;-70
2021/04/27 12:34:53;;;;;;;6.00;2.97;;;17.60;41.00;;;;;;5023980;28;20442;-72
2021/04/27 12:37:18;;;;;;;6.07;3.43;;;17.60;40.60;;;;;;5030382;28;20421;-67
2021/04/27 12:39:44;;;;;;;6.07;3.07;;;17.50;41.00;;;;;;5031635;28;20479;-70
2021/04/27 12:42:20;;;;;;;7.63;3.77;;;17.50;41.40;;;;;;5028505;28;20649;-68
2021/04/27 12:44:59;;;;;;;6.73;3.40;;;17.50;41.90;;;;;;5031917;28;20217;-69
2021/04/27 12:47:50;;;;;;;6.10;3.90;;;17.50;41.40;;;;;;5028369;28;20420;-73
2021/04/27 12:50:18;;;;;;;6.30;3.20;;;17.50;40.80;;;;;;5026070;28;20448;-72
2021/04/27 12:52:51;;;;;;;6.00;3.37;;;17.40;41.50;;;;;;5015163;28;20413;-71
2021/04/27 12:55:32;;;;;;;7.57;4.20;;;17.40;41.20;;;;;;5030502;28;20537;-73
2021/04/27 12:58:25;;;;;;;10.73;3.70;;;17.40;42.30;;;;;;5032552;28;20444;-71
2021/04/27 13:00:51;;;;;;;5.67;2.97;;;17.40;42.70;;;;;;5029320;28;20781;-71